sensor_id;sensor_type;location;lat;lon;timestamp;P1;durP1;ratioP1;P2;durP2;ratioP2
7330;SDS011;3706;49.198;7.064;2022-10-22T00:00:53;5.10;;;2.23;;
7330;SDS011;3706;49.198;7.064;2022-10-22T00:03:21;4.03;;;1.80;;
7330;SDS011;3706;49.198;7.064;2022-10-22T00:05:50;3.90;;;2.10;;
7330;SDS011;3706;49.198;7.064;2022-10-22T00:08:29;4.93;;;2.10;;
7330;SDS011;3706;49.198;7.064;2022-10-22T00:11:00;3.40;;;1.73;;
7330;SDS011;3706;49.198;7.064;2022-10-22T00:13:34;3.00;;;1.73;;
7330;SDS011;3706;49.198;7.064;2022-10-22T00:16:30;3.93;;;2.00;;
7330;SDS011;3706;49.198;7.064;2022-10-22T00:19:27;3.37;;;1.80;;
7330;SDS011;3706;49.198;7.064;2022-10-22T00:21:54;3.83;;;2.00;;
7330;SDS011;3706;49.198;7.064;2022-10-22T00:24:23;3.30;;;2.07;;
7330;SDS011;3706;49.198;7.064;2022-10-22T00:26:50;3.10;;;1.67;;
7330;SDS011;3706;49.198;7.064;2022-10-22T00:29:18;5.83;;;2.00;;
7330;SDS011;3706;49.198;7.064;2022-10-22T00:31:45;2.97;;;1.90;;
7330;SDS011;3706;49.198;7.064;2022-10-22T00:34:14;4.43;;;1.70;;
7330;SDS011;3706;49.198;7.064;2022-10-22T00:36:41;2.30;;;1.70;;
7330;SDS011;3706;49.198;7.064;2022-10-22T00:39:08;3.23;;;1.47;;
7330;SDS011;3706;49.198;7.064;2022-10-22T00:41:38;9.30;;;1.83;;
7330;SDS011;3706;49.198;7.064;2022-10-22T00:44:05;3.43;;;1.63;;
7330;SDS011;3706;49.198;7.064;2022-10-22T00:46:32;2.33;;;1.60;;
7330;SDS011;3706;49.198;7.064;2022-10-22T00:48:59;2.43;;;1.40;;
7330;SDS011;3706;49.198;7.064;2022-10-22T00:51:29;3.00;;;1.50;;
7330;SDS011;3706;49.198;7.064;2022-10-22T00:53:59;2.30;;;1.60;;
7330;SDS011;3706;49.198;7.064;2022-10-22T00:56:29;3.37;;;1.40;;
7330;SDS011;3706;49.198;7.064;2022-10-22T00:58:59;5.53;;;1.90;;
7330;SDS011;3706;49.198;7.064;2022-10-22T01:01:28;3.33;;;1.57;;
7330;SDS011;3706;49.198;7.064;2022-10-22T01:03:56;3.43;;;1.87;;
7330;SDS011;3706;49.198;7.064;2022-10-22T01:06:25;3.20;;;1.50;;
7330;SDS011;3706;49.198;7.064;2022-10-22T01:09:02;4.13;;;1.67;;
7330;SDS011;3706;49.198;7.064;2022-10-22T01:11:38;2.80;;;1.70;;
7330;SDS011;3706;49.198;7.064;2022-10-22T01:14:16;3.67;;;1.33;;
7330;SDS011;3706;49.198;7.064;2022-10-22T01:16:51;3.60;;;1.83;;
7330;SDS011;3706;49.198;7.064;2022-10-22T01:19:28;2.57;;;1.60;;
7330;SDS011;3706;49.198;7.064;2022-10-22T01:22:13;1.60;;;1.40;;
7330;SDS011;3706;49.198;7.064;2022-10-22T01:24:52;2.43;;;1.60;;
7330;SDS011;3706;49.198;7.064;2022-10-22T01:27:25;1.70;;;1.30;;
7330;SDS011;3706;49.198;7.064;2022-10-22T01:30:11;2.23;;;1.10;;
7330;SDS011;3706;49.198;7.064;2022-10-22T01:32:40;2.77;;;1.40;;
7330;SDS011;3706;49.198;7.064;2022-10-22T01:35:11;2.50;;;1.63;;
7330;SDS011;3706;49.198;7.064;2022-10-22T01:37:44;2.63;;;1.43;;
7330;SDS011;3706;49.198;7.064;2022-10-22T01:40:13;4.87;;;1.50;;
7330;SDS011;3706;49.198;7.064;2022-10-22T01:42:52;2.20;;;1.83;;
7330;SDS011;3706;49.198;7.064;2022-10-22T01:45:24;5.00;;;1.63;;
7330;SDS011;3706;49.198;7.064;2022-10-22T01:47:55;5.27;;;1.67;;
7330;SDS011;3706;49.198;7.064;2022-10-22T01:50:40;3.93;;;1.77;;
7330;SDS011;3706;49.198;7.064;2022-10-22T01:53:23;2.60;;;1.40;;
7330;SDS011;3706;49.198;7.064;2022-10-22T01:56:01;5.83;;;1.53;;
7330;SDS011;3706;49.198;7.064;2022-10-22T01:58:38;1.90;;;1.30;;
7330;SDS011;3706;49.198;7.064;2022-10-22T02:01:14;2.93;;;1.80;;
7330;SDS011;3706;49.198;7.064;2022-10-22T02:03:48;4.30;;;1.20;;
7330;SDS011;3706;49.198;7.064;2022-10-22T02:06:21;2.40;;;1.60;;
7330;SDS011;3706;49.198;7.064;2022-10-22T02:08:50;6.70;;;1.50;;
7330;SDS011;3706;49.198;7.064;2022-10-22T02:11:19;3.40;;;1.37;;
7330;SDS011;3706;49.198;7.064;2022-10-22T02:13:47;4.40;;;1.80;;
7330;SDS011;3706;49.198;7.064;2022-10-22T02:16:19;4.30;;;1.40;;
7330;SDS011;3706;49.198;7.064;2022-10-22T02:18:50;1.90;;;1.20;;
7330;SDS011;3706;49.198;7.064;2022-10-22T02:21:19;7.03;;;1.80;;
7330;SDS011;3706;49.198;7.064;2022-10-22T02:23:46;6.67;;;1.90;;
7330;SDS011;3706;49.198;7.064;2022-10-22T02:26:15;3.80;;;2.03;;
7330;SDS011;3706;49.198;7.064;2022-10-22T02:28:49;2.10;;;1.50;;
7330;SDS011;3706;49.198;7.064;2022-10-22T02:31:23;4.20;;;1.70;;
7330;SDS011;3706;49.198;7.064;2022-10-22T02:33:53;7.63;;;1.87;;
7330;SDS011;3706;49.198;7.064;2022-10-22T02:36:23;3.27;;;2.03;;
7330;SDS011;3706;49.198;7.064;2022-10-22T02:38:51;2.80;;;1.43;;
7330;SDS011;3706;49.198;7.064;2022-10-22T02:41:18;5.63;;;3.43;;
7330;SDS011;3706;49.198;7.064;2022-10-22T02:43:48;4.73;;;2.70;;
7330;SDS011;3706;49.198;7.064;2022-10-22T02:46:18;3.30;;;2.20;;
7330;SDS011;3706;49.198;7.064;2022-10-22T02:48:46;3.17;;;1.80;;
7330;SDS011;3706;49.198;7.064;2022-10-22T02:51:13;4.83;;;2.00;;
7330;SDS011;3706;49.198;7.064;2022-10-22T02:53:40;4.17;;;1.77;;
7330;SDS011;3706;49.198;7.064;2022-10-22T02:56:07;8.97;;;2.20;;
7330;SDS011;3706;49.198;7.064;2022-10-22T02:58:34;3.07;;;1.80;;
7330;SDS011;3706;49.198;7.064;2022-10-22T03:01:01;4.90;;;1.80;;
7330;SDS011;3706;49.198;7.064;2022-10-22T03:03:28;2.90;;;1.87;;
7330;SDS011;3706;49.198;7.064;2022-10-22T03:05:56;5.97;;;2.47;;
7330;SDS011;3706;49.198;7.064;2022-10-22T03:08:23;4.00;;;1.70;;
7330;SDS011;3706;49.198;7.064;2022-10-22T03:10:50;5.83;;;2.50;;
7330;SDS011;3706;49.198;7.064;2022-10-22T03:13:17;5.00;;;1.97;;
7330;SDS011;3706;49.198;7.064;2022-10-22T03:15:46;2.10;;;1.80;;
7330;SDS011;3706;49.198;7.064;2022-10-22T03:18:14;4.03;;;1.90;;
7330;SDS011;3706;49.198;7.064;2022-10-22T03:20:41;6.60;;;2.20;;
7330;SDS011;3706;49.198;7.064;2022-10-22T03:23:09;8.00;;;2.00;;
7330;SDS011;3706;49.198;7.064;2022-10-22T03:25:38;5.33;;;2.63;;
7330;SDS011;3706;49.198;7.064;2022-10-22T03:28:07;5.47;;;1.97;;
7330;SDS011;3706;49.198;7.064;2022-10-22T03:30:36;5.47;;;1.90;;
7330;SDS011;3706;49.198;7.064;2022-10-22T03:33:02;5.50;;;1.83;;
7330;SDS011;3706;49.198;7.064;2022-10-22T03:35:29;5.03;;;1.50;;
7330;SDS011;3706;49.198;7.064;2022-10-22T03:37:58;3.93;;;1.60;;
7330;SDS011;3706;49.198;7.064;2022-10-22T03:40:27;3.03;;;1.70;;
7330;SDS011;3706;49.198;7.064;2022-10-22T03:42:54;2.70;;;1.60;;
7330;SDS011;3706;49.198;7.064;2022-10-22T03:45:21;5.97;;;2.03;;
7330;SDS011;3706;49.198;7.064;2022-10-22T03:47:48;3.07;;;1.53;;
7330;SDS011;3706;49.198;7.064;2022-10-22T03:50:15;7.07;;;3.10;;
7330;SDS011;3706;49.198;7.064;2022-10-22T03:52:42;4.93;;;1.53;;
7330;SDS011;3706;49.198;7.064;2022-10-22T03:55:09;4.83;;;1.70;;
7330;SDS011;3706;49.198;7.064;2022-10-22T03:57:37;2.20;;;1.93;;
7330;SDS011;3706;49.198;7.064;2022-10-22T04:00:05;3.83;;;1.70;;
7330;SDS011;3706;49.198;7.064;2022-10-22T04:02:34;5.47;;;2.43;;
7330;SDS011;3706;49.198;7.064;2022-10-22T04:05:01;6.63;;;2.60;;
7330;SDS011;3706;49.198;7.064;2022-10-22T04:07:28;8.63;;;2.00;;
7330;SDS011;3706;49.198;7.064;2022-10-22T04:09:54;5.13;;;2.03;;
7330;SDS011;3706;49.198;7.064;2022-10-22T04:12:21;6.37;;;2.33;;
7330;SDS011;3706;49.198;7.064;2022-10-22T04:14:50;6.73;;;4.63;;
7330;SDS011;3706;49.198;7.064;2022-10-22T04:17:16;4.77;;;3.23;;
7330;SDS011;3706;49.198;7.064;2022-10-22T04:19:43;2.60;;;1.83;;
7330;SDS011;3706;49.198;7.064;2022-10-22T04:22:10;2.33;;;2.13;;
7330;SDS011;3706;49.198;7.064;2022-10-22T04:24:37;3.40;;;2.20;;
7330;SDS011;3706;49.198;7.064;2022-10-22T04:27:04;5.57;;;2.27;;
7330;SDS011;3706;49.198;7.064;2022-10-22T04:29:31;4.70;;;2.23;;
7330;SDS011;3706;49.198;7.064;2022-10-22T04:31:59;3.10;;;1.80;;
7330;SDS011;3706;49.198;7.064;2022-10-22T04:34:26;2.10;;;1.90;;
7330;SDS011;3706;49.198;7.064;2022-10-22T04:36:53;5.37;;;2.60;;
7330;SDS011;3706;49.198;7.064;2022-10-22T04:39:20;13.27;;;5.57;;
7330;SDS011;3706;49.198;7.064;2022-10-22T04:41:47;11.03;;;7.00;;
7330;SDS011;3706;49.198;7.064;2022-10-22T04:44:14;4.97;;;3.63;;
7330;SDS011;3706;49.198;7.064;2022-10-22T04:46:41;4.57;;;2.87;;
7330;SDS011;3706;49.198;7.064;2022-10-22T04:49:09;6.73;;;3.20;;
7330;SDS011;3706;49.198;7.064;2022-10-22T04:51:36;8.77;;;4.33;;
7330;SDS011;3706;49.198;7.064;2022-10-22T04:54:03;4.73;;;2.90;;
7330;SDS011;3706;49.198;7.064;2022-10-22T04:56:31;8.97;;;2.60;;
7330;SDS011;3706;49.198;7.064;2022-10-22T04:58:58;15.27;;;7.17;;
7330;SDS011;3706;49.198;7.064;2022-10-22T05:01:27;7.13;;;3.20;;
7330;SDS011;3706;49.198;7.064;2022-10-22T05:03:55;9.00;;;5.47;;
7330;SDS011;3706;49.198;7.064;2022-10-22T05:06:25;12.17;;;6.53;;
7330;SDS011;3706;49.198;7.064;2022-10-22T05:08:54;8.57;;;4.73;;
7330;SDS011;3706;49.198;7.064;2022-10-22T05:11:23;13.83;;;6.93;;
7330;SDS011;3706;49.198;7.064;2022-10-22T05:13:52;6.77;;;4.43;;
7330;SDS011;3706;49.198;7.064;2022-10-22T05:16:20;9.30;;;5.40;;
7330;SDS011;3706;49.198;7.064;2022-10-22T05:18:47;9.00;;;5.00;;
7330;SDS011;3706;49.198;7.064;2022-10-22T05:21:15;9.27;;;4.83;;
7330;SDS011;3706;49.198;7.064;2022-10-22T05:23:45;9.70;;;5.50;;
7330;SDS011;3706;49.198;7.064;2022-10-22T05:26:14;6.87;;;3.67;;
7330;SDS011;3706;49.198;7.064;2022-10-22T05:28:42;8.93;;;4.40;;
7330;SDS011;3706;49.198;7.064;2022-10-22T05:31:10;7.43;;;4.67;;
7330;SDS011;3706;49.198;7.064;2022-10-22T05:33:38;14.17;;;5.03;;
7330;SDS011;3706;49.198;7.064;2022-10-22T05:36:06;11.67;;;3.97;;
7330;SDS011;3706;49.198;7.064;2022-10-22T05:38:35;5.90;;;2.83;;
7330;SDS011;3706;49.198;7.064;2022-10-22T05:41:04;6.40;;;2.83;;
7330;SDS011;3706;49.198;7.064;2022-10-22T05:43:33;2.87;;;2.20;;
7330;SDS011;3706;49.198;7.064;2022-10-22T05:46:01;3.80;;;2.37;;
7330;SDS011;3706;49.198;7.064;2022-10-22T05:48:29;8.80;;;2.53;;
7330;SDS011;3706;49.198;7.064;2022-10-22T05:50:56;4.07;;;2.43;;
7330;SDS011;3706;49.198;7.064;2022-10-22T05:53:28;8.40;;;3.20;;
7330;SDS011;3706;49.198;7.064;2022-10-22T05:55:58;4.30;;;2.83;;
7330;SDS011;3706;49.198;7.064;2022-10-22T05:58:27;4.63;;;2.57;;
7330;SDS011;3706;49.198;7.064;2022-10-22T06:00:54;7.70;;;3.00;;
7330;SDS011;3706;49.198;7.064;2022-10-22T06:03:25;4.57;;;2.43;;
7330;SDS011;3706;49.198;7.064;2022-10-22T06:05:52;4.47;;;2.37;;
7330;SDS011;3706;49.198;7.064;2022-10-22T06:08:19;5.63;;;2.20;;
7330;SDS011;3706;49.198;7.064;2022-10-22T06:10:46;6.30;;;2.20;;
7330;SDS011;3706;49.198;7.064;2022-10-22T06:13:13;4.27;;;2.50;;
7330;SDS011;3706;49.198;7.064;2022-10-22T06:15:42;3.97;;;2.53;;
7330;SDS011;3706;49.198;7.064;2022-10-22T06:18:09;4.33;;;2.23;;
7330;SDS011;3706;49.198;7.064;2022-10-22T06:20:36;8.17;;;2.70;;
7330;SDS011;3706;49.198;7.064;2022-10-22T06:23:03;7.23;;;2.70;;
7330;SDS011;3706;49.198;7.064;2022-10-22T06:25:30;6.67;;;2.60;;
7330;SDS011;3706;49.198;7.064;2022-10-22T06:27:57;3.73;;;2.10;;
7330;SDS011;3706;49.198;7.064;2022-10-22T06:30:23;6.83;;;2.20;;
7330;SDS011;3706;49.198;7.064;2022-10-22T06:32:52;2.77;;;2.30;;
7330;SDS011;3706;49.198;7.064;2022-10-22T06:35:19;5.57;;;2.17;;
7330;SDS011;3706;49.198;7.064;2022-10-22T06:37:45;4.13;;;1.60;;
7330;SDS011;3706;49.198;7.064;2022-10-22T06:40:12;7.00;;;2.00;;
7330;SDS011;3706;49.198;7.064;2022-10-22T06:42:40;8.27;;;2.47;;
7330;SDS011;3706;49.198;7.064;2022-10-22T06:45:08;5.13;;;2.10;;
7330;SDS011;3706;49.198;7.064;2022-10-22T06:47:35;3.90;;;1.93;;
7330;SDS011;3706;49.198;7.064;2022-10-22T06:50:05;3.47;;;2.30;;
7330;SDS011;3706;49.198;7.064;2022-10-22T06:52:32;7.20;;;2.20;;
7330;SDS011;3706;49.198;7.064;2022-10-22T06:54:59;4.83;;;2.30;;
7330;SDS011;3706;49.198;7.064;2022-10-22T06:57:26;4.00;;;2.20;;
7330;SDS011;3706;49.198;7.064;2022-10-22T06:59:54;5.77;;;2.30;;
7330;SDS011;3706;49.198;7.064;2022-10-22T07:02:21;2.93;;;2.50;;
7330;SDS011;3706;49.198;7.064;2022-10-22T07:04:48;6.70;;;2.57;;
7330;SDS011;3706;49.198;7.064;2022-10-22T07:07:16;2.00;;;1.80;;
7330;SDS011;3706;49.198;7.064;2022-10-22T07:09:43;5.23;;;1.93;;
7330;SDS011;3706;49.198;7.064;2022-10-22T07:12:13;3.83;;;1.87;;
7330;SDS011;3706;49.198;7.064;2022-10-22T07:14:40;4.10;;;1.93;;
7330;SDS011;3706;49.198;7.064;2022-10-22T07:17:07;3.03;;;1.70;;
7330;SDS011;3706;49.198;7.064;2022-10-22T07:19:34;9.17;;;1.87;;
7330;SDS011;3706;49.198;7.064;2022-10-22T07:22:01;4.13;;;1.57;;
7330;SDS011;3706;49.198;7.064;2022-10-22T07:24:29;5.23;;;1.77;;
7330;SDS011;3706;49.198;7.064;2022-10-22T07:26:56;3.87;;;1.60;;
7330;SDS011;3706;49.198;7.064;2022-10-22T07:29:23;1.53;;;1.40;;
7330;SDS011;3706;49.198;7.064;2022-10-22T07:31:50;3.87;;;1.90;;
7330;SDS011;3706;49.198;7.064;2022-10-22T07:34:17;4.93;;;2.57;;
7330;SDS011;3706;49.198;7.064;2022-10-22T07:36:44;3.17;;;1.80;;
7330;SDS011;3706;49.198;7.064;2022-10-22T07:39:11;5.27;;;2.20;;
7330;SDS011;3706;49.198;7.064;2022-10-22T07:41:39;4.27;;;1.57;;
7330;SDS011;3706;49.198;7.064;2022-10-22T07:44:06;3.73;;;1.53;;
7330;SDS011;3706;49.198;7.064;2022-10-22T07:46:33;4.80;;;1.07;;
7330;SDS011;3706;49.198;7.064;2022-10-22T07:49:00;2.70;;;1.30;;
7330;SDS011;3706;49.198;7.064;2022-10-22T07:51:27;3.90;;;1.37;;
7330;SDS011;3706;49.198;7.064;2022-10-22T07:53:54;7.73;;;1.47;;
7330;SDS011;3706;49.198;7.064;2022-10-22T07:56:21;1.33;;;1.13;;
7330;SDS011;3706;49.198;7.064;2022-10-22T07:58:49;2.50;;;1.00;;
7330;SDS011;3706;49.198;7.064;2022-10-22T08:01:16;2.57;;;0.97;;
7330;SDS011;3706;49.198;7.064;2022-10-22T08:03:43;1.60;;;0.70;;
7330;SDS011;3706;49.198;7.064;2022-10-22T08:06:11;1.47;;;0.93;;
7330;SDS011;3706;49.198;7.064;2022-10-22T08:08:38;2.27;;;0.83;;
7330;SDS011;3706;49.198;7.064;2022-10-22T08:11:05;2.87;;;0.83;;
7330;SDS011;3706;49.198;7.064;2022-10-22T08:13:32;6.17;;;1.40;;
7330;SDS011;3706;49.198;7.064;2022-10-22T08:16:00;2.70;;;1.10;;
7330;SDS011;3706;49.198;7.064;2022-10-22T08:18:28;4.03;;;1.10;;
7330;SDS011;3706;49.198;7.064;2022-10-22T08:20:55;2.97;;;1.20;;
7330;SDS011;3706;49.198;7.064;2022-10-22T08:23:22;2.07;;;0.80;;
7330;SDS011;3706;49.198;7.064;2022-10-22T08:25:48;1.37;;;1.17;;
7330;SDS011;3706;49.198;7.064;2022-10-22T08:28:15;2.40;;;1.13;;
7330;SDS011;3706;49.198;7.064;2022-10-22T08:30:42;2.70;;;1.23;;
7330;SDS011;3706;49.198;7.064;2022-10-22T08:33:13;3.87;;;1.23;;
7330;SDS011;3706;49.198;7.064;2022-10-22T08:35:40;3.93;;;1.40;;
7330;SDS011;3706;49.198;7.064;2022-10-22T08:38:07;1.83;;;1.30;;
7330;SDS011;3706;49.198;7.064;2022-10-22T08:40:36;5.83;;;2.00;;
7330;SDS011;3706;49.198;7.064;2022-10-22T08:43:08;2.47;;;1.13;;
7330;SDS011;3706;49.198;7.064;2022-10-22T08:45:46;1.43;;;1.10;;
7330;SDS011;3706;49.198;7.064;2022-10-22T08:48:25;2.27;;;1.47;;
7330;SDS011;3706;49.198;7.064;2022-10-22T08:51:04;3.73;;;1.43;;
7330;SDS011;3706;49.198;7.064;2022-10-22T08:53:33;1.33;;;1.20;;
7330;SDS011;3706;49.198;7.064;2022-10-22T08:56:06;5.03;;;1.50;;
7330;SDS011;3706;49.198;7.064;2022-10-22T08:58:35;2.73;;;1.60;;
7330;SDS011;3706;49.198;7.064;2022-10-22T09:01:09;4.67;;;1.60;;
7330;SDS011;3706;49.198;7.064;2022-10-22T09:03:44;5.37;;;1.67;;
7330;SDS011;3706;49.198;7.064;2022-10-22T09:06:16;3.67;;;1.63;;
7330;SDS011;3706;49.198;7.064;2022-10-22T09:08:46;3.33;;;1.70;;
7330;SDS011;3706;49.198;7.064;2022-10-22T09:11:25;6.20;;;1.50;;
7330;SDS011;3706;49.198;7.064;2022-10-22T09:13:54;3.87;;;1.50;;
7330;SDS011;3706;49.198;7.064;2022-10-22T09:16:24;2.63;;;1.50;;
7330;SDS011;3706;49.198;7.064;2022-10-22T09:19:08;7.50;;;1.60;;
7330;SDS011;3706;49.198;7.064;2022-10-22T09:21:45;4.03;;;1.60;;
7330;SDS011;3706;49.198;7.064;2022-10-22T09:24:25;4.60;;;1.50;;
7330;SDS011;3706;49.198;7.064;2022-10-22T09:26:59;3.23;;;1.40;;
7330;SDS011;3706;49.198;7.064;2022-10-22T09:29:30;3.60;;;1.57;;
7330;SDS011;3706;49.198;7.064;2022-10-22T09:31:58;2.93;;;1.40;;
7330;SDS011;3706;49.198;7.064;2022-10-22T09:34:27;3.43;;;1.30;;
7330;SDS011;3706;49.198;7.064;2022-10-22T09:36:57;1.30;;;1.20;;
7330;SDS011;3706;49.198;7.064;2022-10-22T09:39:25;3.40;;;1.50;;
7330;SDS011;3706;49.198;7.064;2022-10-22T09:41:53;2.33;;;1.20;;
7330;SDS011;3706;49.198;7.064;2022-10-22T09:44:20;3.57;;;1.30;;
7330;SDS011;3706;49.198;7.064;2022-10-22T09:46:47;4.30;;;1.60;;
7330;SDS011;3706;49.198;7.064;2022-10-22T09:49:15;2.80;;;1.40;;
7330;SDS011;3706;49.198;7.064;2022-10-22T09:51:50;3.10;;;1.70;;
7330;SDS011;3706;49.198;7.064;2022-10-22T09:54:19;2.13;;;1.20;;
7330;SDS011;3706;49.198;7.064;2022-10-22T09:56:55;3.93;;;1.20;;
7330;SDS011;3706;49.198;7.064;2022-10-22T09:59:27;4.90;;;1.30;;
7330;SDS011;3706;49.198;7.064;2022-10-22T10:01:57;3.07;;;1.20;;
7330;SDS011;3706;49.198;7.064;2022-10-22T10:04:26;2.77;;;1.53;;
7330;SDS011;3706;49.198;7.064;2022-10-22T10:06:54;7.50;;;1.80;;
7330;SDS011;3706;49.198;7.064;2022-10-22T10:09:24;2.93;;;1.47;;
7330;SDS011;3706;49.198;7.064;2022-10-22T10:11:54;5.50;;;1.00;;
7330;SDS011;3706;49.198;7.064;2022-10-22T10:14:32;3.20;;;1.57;;
7330;SDS011;3706;49.198;7.064;2022-10-22T10:17:07;3.73;;;1.67;;
7330;SDS011;3706;49.198;7.064;2022-10-22T10:19:42;3.53;;;1.40;;
7330;SDS011;3706;49.198;7.064;2022-10-22T10:22:25;6.27;;;1.70;;
7330;SDS011;3706;49.198;7.064;2022-10-22T10:25:11;2.27;;;1.80;;
7330;SDS011;3706;49.198;7.064;2022-10-22T10:27:55;4.50;;;1.40;;
7330;SDS011;3706;49.198;7.064;2022-10-22T10:30:26;6.43;;;1.70;;
7330;SDS011;3706;49.198;7.064;2022-10-22T10:33:02;3.70;;;1.23;;
7330;SDS011;3706;49.198;7.064;2022-10-22T10:35:39;7.70;;;2.30;;
7330;SDS011;3706;49.198;7.064;2022-10-22T10:38:23;2.53;;;1.30;;
7330;SDS011;3706;49.198;7.064;2022-10-22T10:41:12;3.73;;;1.30;;
7330;SDS011;3706;49.198;7.064;2022-10-22T10:43:49;6.37;;;1.63;;
7330;SDS011;3706;49.198;7.064;2022-10-22T10:46:39;4.87;;;1.83;;
7330;SDS011;3706;49.198;7.064;2022-10-22T10:49:15;1.70;;;1.20;;
7330;SDS011;3706;49.198;7.064;2022-10-22T10:51:47;7.10;;;2.00;;
7330;SDS011;3706;49.198;7.064;2022-10-22T10:54:33;8.87;;;1.73;;
7330;SDS011;3706;49.198;7.064;2022-10-22T10:57:08;5.20;;;1.47;;
7330;SDS011;3706;49.198;7.064;2022-10-22T10:59:44;4.03;;;1.40;;
7330;SDS011;3706;49.198;7.064;2022-10-22T11:05:12;4.37;;;1.90;;
7330;SDS011;3706;49.198;7.064;2022-10-22T11:07:53;5.43;;;1.73;;
7330;SDS011;3706;49.198;7.064;2022-10-22T11:10:27;3.07;;;1.57;;
7330;SDS011;3706;49.198;7.064;2022-10-22T11:12:57;5.93;;;1.83;;
7330;SDS011;3706;49.198;7.064;2022-10-22T11:15:30;4.13;;;1.60;;
7330;SDS011;3706;49.198;7.064;2022-10-22T11:18:01;3.07;;;1.70;;
7330;SDS011;3706;49.198;7.064;2022-10-22T11:20:36;5.23;;;1.87;;
7330;SDS011;3706;49.198;7.064;2022-10-22T11:23:16;4.60;;;1.73;;
7330;SDS011;3706;49.198;7.064;2022-10-22T11:25:49;2.97;;;1.50;;
7330;SDS011;3706;49.198;7.064;2022-10-22T11:28:18;5.10;;;1.80;;
7330;SDS011;3706;49.198;7.064;2022-10-22T11:30:51;3.40;;;1.40;;
7330;SDS011;3706;49.198;7.064;2022-10-22T11:33:23;2.77;;;1.67;;
7330;SDS011;3706;49.198;7.064;2022-10-22T11:35:54;5.23;;;1.87;;
7330;SDS011;3706;49.198;7.064;2022-10-22T11:38:23;5.63;;;1.70;;
7330;SDS011;3706;49.198;7.064;2022-10-22T11:40:55;7.93;;;1.50;;
7330;SDS011;3706;49.198;7.064;2022-10-22T11:43:26;5.93;;;1.60;;
7330;SDS011;3706;49.198;7.064;2022-10-22T11:45:57;8.70;;;1.90;;
7330;SDS011;3706;49.198;7.064;2022-10-22T11:48:33;8.90;;;1.90;;
7330;SDS011;3706;49.198;7.064;2022-10-22T11:51:03;5.00;;;1.57;;
7330;SDS011;3706;49.198;7.064;2022-10-22T11:53:54;2.90;;;1.53;;
7330;SDS011;3706;49.198;7.064;2022-10-22T11:56:24;5.07;;;1.37;;
7330;SDS011;3706;49.198;7.064;2022-10-22T11:58:53;6.60;;;1.60;;
7330;SDS011;3706;49.198;7.064;2022-10-22T12:01:25;3.63;;;1.63;;
7330;SDS011;3706;49.198;7.064;2022-10-22T12:06:50;4.37;;;1.53;;
7330;SDS011;3706;49.198;7.064;2022-10-22T12:09:21;5.83;;;1.77;;
7330;SDS011;3706;49.198;7.064;2022-10-22T12:11:52;2.70;;;1.60;;
7330;SDS011;3706;49.198;7.064;2022-10-22T12:14:20;4.90;;;1.67;;
7330;SDS011;3706;49.198;7.064;2022-10-22T12:16:51;3.90;;;1.80;;
7330;SDS011;3706;49.198;7.064;2022-10-22T12:19:23;5.17;;;1.60;;
7330;SDS011;3706;49.198;7.064;2022-10-22T12:21:53;6.00;;;2.07;;
7330;SDS011;3706;49.198;7.064;2022-10-22T12:24:23;8.40;;;1.70;;
7330;SDS011;3706;49.198;7.064;2022-10-22T12:26:55;4.47;;;1.53;;
7330;SDS011;3706;49.198;7.064;2022-10-22T12:29:22;5.23;;;1.63;;
7330;SDS011;3706;49.198;7.064;2022-10-22T12:31:50;4.60;;;1.87;;
7330;SDS011;3706;49.198;7.064;2022-10-22T12:34:20;3.77;;;1.77;;
7330;SDS011;3706;49.198;7.064;2022-10-22T12:36:49;4.47;;;1.53;;
7330;SDS011;3706;49.198;7.064;2022-10-22T12:39:18;5.37;;;1.53;;
7330;SDS011;3706;49.198;7.064;2022-10-22T12:41:46;5.10;;;1.70;;
7330;SDS011;3706;49.198;7.064;2022-10-22T12:44:15;11.03;;;1.90;;
7330;SDS011;3706;49.198;7.064;2022-10-22T12:46:43;5.07;;;1.40;;
7330;SDS011;3706;49.198;7.064;2022-10-22T12:49:13;3.30;;;1.60;;
7330;SDS011;3706;49.198;7.064;2022-10-22T12:51:44;5.77;;;1.80;;
7330;SDS011;3706;49.198;7.064;2022-10-22T12:54:15;7.80;;;1.77;;
7330;SDS011;3706;49.198;7.064;2022-10-22T12:56:48;4.30;;;1.57;;
7330;SDS011;3706;49.198;7.064;2022-10-22T12:59:19;5.67;;;1.60;;
7330;SDS011;3706;49.198;7.064;2022-10-22T13:01:47;2.17;;;1.27;;
7330;SDS011;3706;49.198;7.064;2022-10-22T13:04:29;3.33;;;1.57;;
7330;SDS011;3706;49.198;7.064;2022-10-22T13:07:06;4.30;;;1.17;;
7330;SDS011;3706;49.198;7.064;2022-10-22T13:09:43;4.03;;;1.63;;
7330;SDS011;3706;49.198;7.064;2022-10-22T13:12:12;8.17;;;1.90;;
7330;SDS011;3706;49.198;7.064;2022-10-22T13:14:42;4.37;;;1.50;;
7330;SDS011;3706;49.198;7.064;2022-10-22T13:17:12;5.50;;;1.53;;
7330;SDS011;3706;49.198;7.064;2022-10-22T13:19:42;6.87;;;1.80;;
7330;SDS011;3706;49.198;7.064;2022-10-22T13:22:22;2.83;;;1.93;;
7330;SDS011;3706;49.198;7.064;2022-10-22T13:24:51;5.60;;;2.00;;
7330;SDS011;3706;49.198;7.064;2022-10-22T13:27:18;5.93;;;1.77;;
7330;SDS011;3706;49.198;7.064;2022-10-22T13:29:46;3.57;;;1.50;;
7330;SDS011;3706;49.198;7.064;2022-10-22T13:32:20;3.07;;;1.90;;
7330;SDS011;3706;49.198;7.064;2022-10-22T13:34:54;5.13;;;2.40;;
7330;SDS011;3706;49.198;7.064;2022-10-22T13:37:22;9.60;;;2.30;;
7330;SDS011;3706;49.198;7.064;2022-10-22T13:39:50;4.83;;;1.60;;
7330;SDS011;3706;49.198;7.064;2022-10-22T13:42:16;3.47;;;1.57;;
7330;SDS011;3706;49.198;7.064;2022-10-22T13:44:43;5.77;;;1.93;;
7330;SDS011;3706;49.198;7.064;2022-10-22T13:47:14;5.87;;;1.90;;
7330;SDS011;3706;49.198;7.064;2022-10-22T13:49:49;5.37;;;2.10;;
7330;SDS011;3706;49.198;7.064;2022-10-22T13:52:21;6.70;;;1.90;;
7330;SDS011;3706;49.198;7.064;2022-10-22T13:54:53;5.27;;;1.93;;
7330;SDS011;3706;49.198;7.064;2022-10-22T13:57:20;4.57;;;1.63;;
7330;SDS011;3706;49.198;7.064;2022-10-22T13:59:46;2.70;;;1.50;;
7330;SDS011;3706;49.198;7.064;2022-10-22T14:02:15;3.67;;;1.70;;
7330;SDS011;3706;49.198;7.064;2022-10-22T14:04:42;7.67;;;1.93;;
7330;SDS011;3706;49.198;7.064;2022-10-22T14:07:11;3.97;;;1.80;;
7330;SDS011;3706;49.198;7.064;2022-10-22T14:09:39;4.60;;;2.03;;
7330;SDS011;3706;49.198;7.064;2022-10-22T14:12:13;2.93;;;1.73;;
7330;SDS011;3706;49.198;7.064;2022-10-22T14:14:42;3.03;;;1.70;;
7330;SDS011;3706;49.198;7.064;2022-10-22T14:17:10;5.77;;;1.60;;
7330;SDS011;3706;49.198;7.064;2022-10-22T14:19:42;4.67;;;2.00;;
7330;SDS011;3706;49.198;7.064;2022-10-22T14:22:13;4.80;;;1.80;;
7330;SDS011;3706;49.198;7.064;2022-10-22T14:24:41;3.73;;;1.97;;
7330;SDS011;3706;49.198;7.064;2022-10-22T14:27:09;6.20;;;2.10;;
7330;SDS011;3706;49.198;7.064;2022-10-22T14:29:37;10.13;;;2.23;;
7330;SDS011;3706;49.198;7.064;2022-10-22T14:32:05;6.73;;;2.03;;
7330;SDS011;3706;49.198;7.064;2022-10-22T14:34:37;2.83;;;1.50;;
7330;SDS011;3706;49.198;7.064;2022-10-22T14:37:07;5.77;;;2.07;;
7330;SDS011;3706;49.198;7.064;2022-10-22T14:39:41;6.90;;;1.70;;
7330;SDS011;3706;49.198;7.064;2022-10-22T14:42:10;5.50;;;1.87;;
7330;SDS011;3706;49.198;7.064;2022-10-22T14:44:37;6.90;;;1.80;;
7330;SDS011;3706;49.198;7.064;2022-10-22T14:47:05;6.57;;;2.13;;
7330;SDS011;3706;49.198;7.064;2022-10-22T14:49:32;5.33;;;2.07;;
7330;SDS011;3706;49.198;7.064;2022-10-22T14:51:59;5.13;;;1.97;;
7330;SDS011;3706;49.198;7.064;2022-10-22T14:54:27;3.73;;;1.70;;
7330;SDS011;3706;49.198;7.064;2022-10-22T14:56:54;2.87;;;1.60;;
7330;SDS011;3706;49.198;7.064;2022-10-22T14:59:21;3.67;;;1.90;;
7330;SDS011;3706;49.198;7.064;2022-10-22T15:01:48;4.67;;;1.77;;
7330;SDS011;3706;49.198;7.064;2022-10-22T15:04:15;7.03;;;2.20;;
7330;SDS011;3706;49.198;7.064;2022-10-22T15:06:42;6.30;;;2.10;;
7330;SDS011;3706;49.198;7.064;2022-10-22T15:09:09;4.07;;;2.00;;
7330;SDS011;3706;49.198;7.064;2022-10-22T15:11:37;4.53;;;1.70;;
7330;SDS011;3706;49.198;7.064;2022-10-22T15:14:05;4.80;;;2.20;;
7330;SDS011;3706;49.198;7.064;2022-10-22T15:16:32;4.23;;;2.10;;
7330;SDS011;3706;49.198;7.064;2022-10-22T15:18:59;3.43;;;2.00;;
7330;SDS011;3706;49.198;7.064;2022-10-22T15:21:26;3.30;;;1.97;;
7330;SDS011;3706;49.198;7.064;2022-10-22T15:23:52;7.90;;;2.10;;
7330;SDS011;3706;49.198;7.064;2022-10-22T15:26:19;3.90;;;1.77;;
7330;SDS011;3706;49.198;7.064;2022-10-22T15:28:48;3.90;;;1.80;;
7330;SDS011;3706;49.198;7.064;2022-10-22T15:31:14;3.17;;;1.70;;
7330;SDS011;3706;49.198;7.064;2022-10-22T15:33:42;8.07;;;1.93;;
7330;SDS011;3706;49.198;7.064;2022-10-22T15:36:09;3.57;;;1.70;;
7330;SDS011;3706;49.198;7.064;2022-10-22T15:38:37;9.47;;;1.80;;